createdAt,value
2023-04-12T00:00:04.117Z,2.15
2023-04-12T00:02:35.644Z,2.30
2023-04-12T00:05:03.468Z,2.53
2023-04-12T00:07:31.089Z,1.85
2023-04-12T00:09:58.857Z,2.13
2023-04-12T00:12:26.634Z,2.00
2023-04-12T00:14:54.225Z,1.95
2023-04-12T00:17:21.907Z,2.22
2023-04-12T00:19:50.122Z,2.28
2023-04-12T00:22:17.729Z,2.05
2023-04-12T00:24:47.256Z,2.42
2023-04-12T00:27:14.939Z,2.30
2023-04-12T00:29:43.684Z,1.88
2023-04-12T00:32:11.654Z,2.40
2023-04-12T00:34:39.317Z,2.33
2023-04-12T00:37:07.005Z,2.15
2023-04-12T00:39:34.574Z,2.40
2023-04-12T00:42:05.607Z,1.90
2023-04-12T00:44:35.268Z,1.88
2023-04-12T00:47:05.400Z,2.40
2023-04-12T00:49:34.224Z,2.22
2023-04-12T00:52:03.425Z,2.03
2023-04-12T00:54:32.538Z,1.95
2023-04-12T00:57:01.104Z,2.28
2023-04-12T00:59:28.917Z,2.13
2023-04-12T01:01:57.319Z,2.17
2023-04-12T01:04:26.342Z,1.90
2023-04-12T01:07:03.613Z,2.17
2023-04-12T01:09:51.308Z,2.28
2023-04-12T01:12:31.373Z,2.17
2023-04-12T01:15:01.891Z,2.10
2023-04-12T01:17:31.628Z,1.90
2023-04-12T01:20:21.593Z,1.92
2023-04-12T01:23:03.579Z,2.35
2023-04-12T01:25:39.317Z,1.92
2023-04-12T01:28:09.116Z,1.90
2023-04-12T01:30:37.629Z,1.80
2023-04-12T01:33:06.669Z,1.90
2023-04-12T01:35:35.547Z,1.88
2023-04-12T01:38:04.290Z,1.77
2023-04-12T01:40:33.208Z,1.80
2023-04-12T01:43:10.783Z,1.60
2023-04-12T01:45:39.681Z,1.67
2023-04-12T01:48:09.141Z,1.88
2023-04-12T01:50:42.104Z,1.25
2023-04-12T01:53:15.169Z,1.70
2023-04-12T01:55:45.818Z,1.73
2023-04-12T01:58:13.691Z,1.30
2023-04-12T02:00:44.158Z,2.00
2023-04-12T02:03:12.794Z,1.98
2023-04-12T02:05:40.553Z,1.40
2023-04-12T02:08:08.245Z,1.60
2023-04-12T02:10:39.632Z,1.17
2023-04-12T02:15:37.105Z,1.40
2023-04-12T02:18:04.846Z,1.10
2023-04-12T02:20:33.059Z,1.50
2023-04-12T02:23:00.935Z,1.30
2023-04-12T02:25:28.527Z,1.88
2023-04-12T02:27:56.282Z,1.83
2023-04-12T02:30:25.902Z,2.00
2023-04-12T02:32:56.115Z,2.08
2023-04-12T02:35:27.774Z,1.88
2023-04-12T02:38:01.390Z,1.70
2023-04-12T02:40:30.829Z,1.98
2023-04-12T02:42:59.236Z,1.70
2023-04-12T02:45:27.768Z,1.77
2023-04-12T02:47:56.901Z,2.10
2023-04-12T02:50:30.020Z,1.80
2023-04-12T02:53:04.914Z,1.95
2023-04-12T02:55:32.917Z,1.63
2023-04-12T02:58:03.451Z,2.42
2023-04-12T03:00:31.503Z,1.70
2023-04-12T03:03:03.062Z,1.65
2023-04-12T03:05:32.278Z,1.70
2023-04-12T03:08:01.078Z,1.42
2023-04-12T03:10:38.002Z,1.83
2023-04-12T03:13:07.020Z,2.08
2023-04-12T03:15:38.192Z,1.33
2023-04-12T03:18:06.112Z,1.70
2023-04-12T03:20:45.392Z,1.60
2023-04-12T03:23:15.168Z,1.42
2023-04-12T03:25:46.756Z,1.75
2023-04-12T03:28:32.896Z,1.52
2023-04-12T03:31:02.791Z,1.63
2023-04-12T03:33:39.811Z,1.40
2023-04-12T03:36:12.124Z,1.67
2023-04-12T03:38:40.381Z,1.38
2023-04-12T03:41:10.742Z,1.50
2023-04-12T03:43:38.687Z,1.58
2023-04-12T03:46:16.596Z,1.60
2023-04-12T03:48:45.504Z,1.30
2023-04-12T03:51:13.529Z,1.50
2023-04-12T03:53:44.745Z,1.52
2023-04-12T03:56:16.592Z,1.70
2023-04-12T03:58:48.046Z,1.52
2023-04-12T04:01:17.881Z,1.80
2023-04-12T04:03:46.699Z,1.55
2023-04-12T04:06:25.617Z,1.38
2023-04-12T04:08:57.756Z,1.58
2023-04-12T04:11:26.380Z,1.42
2023-04-12T04:13:59.596Z,1.45
2023-04-12T04:16:29.275Z,1.70
2023-04-12T04:18:57.380Z,1.60
2023-04-12T04:21:26.495Z,1.33
2023-04-12T04:23:58.541Z,1.42
2023-04-12T04:26:32.241Z,1.30
2023-04-12T04:29:06.397Z,1.38
2023-04-12T04:31:38.111Z,1.65
2023-04-12T04:34:09.203Z,1.60
2023-04-12T04:36:42.372Z,1.80
2023-04-12T04:39:10.495Z,1.50
2023-04-12T04:41:44.678Z,1.75
2023-04-12T04:44:25.720Z,2.00
2023-04-12T04:46:57.851Z,1.88
2023-04-12T04:49:25.472Z,1.50
2023-04-12T04:51:53.306Z,1.80
2023-04-12T04:54:22.985Z,1.50
2023-04-12T04:56:51.580Z,1.48
2023-04-12T04:59:20.601Z,1.50
2023-04-12T05:01:48.310Z,2.05
2023-04-12T05:04:17.894Z,1.80
2023-04-12T05:06:46.683Z,1.67
2023-04-12T05:09:16.721Z,1.40
2023-04-12T05:11:49.608Z,1.40
2023-04-12T05:14:17.215Z,1.45
2023-04-12T05:16:44.827Z,1.90
2023-04-12T05:19:12.474Z,1.75
2023-04-12T05:21:41.114Z,2.00
2023-04-12T05:24:09.061Z,1.52
2023-04-12T05:26:38.559Z,1.80
2023-04-12T05:29:11.805Z,1.85
2023-04-12T05:31:48.709Z,1.85
2023-04-12T05:36:53.688Z,1.65
2023-04-12T05:39:22.600Z,1.67
2023-04-12T05:41:52.009Z,1.83
2023-04-12T05:44:19.775Z,1.67
2023-04-12T05:46:47.957Z,1.70
2023-04-12T05:49:16.973Z,1.50
2023-04-12T05:51:44.852Z,1.73
2023-04-12T05:54:21.226Z,1.85
2023-04-12T05:56:52.683Z,1.52
2023-04-12T05:59:20.649Z,1.60
2023-04-12T06:01:48.437Z,1.60
2023-04-12T06:04:18.806Z,2.00
2023-04-12T06:06:47.406Z,1.55
2023-04-12T06:09:15.523Z,1.30
2023-04-12T06:11:44.231Z,6.03
2023-04-12T06:14:12.069Z,6.10
2023-04-12T06:16:41.757Z,2.50
2023-04-12T06:19:11.055Z,1.83
2023-04-12T06:21:38.664Z,1.80
2023-04-12T06:24:06.991Z,1.70
2023-04-12T06:26:39.624Z,1.50
2023-04-12T06:29:08.637Z,1.77
2023-04-12T06:31:36.549Z,1.92
2023-04-12T06:34:04.174Z,1.50
2023-04-12T06:36:32.703Z,1.60
2023-04-12T06:39:00.290Z,1.85
2023-04-12T06:41:27.929Z,2.20
2023-04-12T06:44:01.063Z,1.73
2023-04-12T06:46:29.135Z,1.70
2023-04-12T06:48:57.048Z,1.95
2023-04-12T06:51:24.885Z,2.30
2023-04-12T06:53:52.477Z,1.80
2023-04-12T06:56:20.129Z,2.20
2023-04-12T06:58:47.753Z,1.80
2023-04-12T07:01:15.406Z,1.90
2023-04-12T07:03:43.124Z,1.90
2023-04-12T07:06:21.800Z,1.35
2023-04-12T07:08:52.593Z,1.85
2023-04-12T07:11:22.446Z,1.63
2023-04-12T07:13:51.308Z,1.95
2023-04-12T07:16:19.058Z,1.88
2023-04-12T07:18:46.830Z,1.55
2023-04-12T07:21:14.504Z,1.83
2023-04-12T07:23:42.212Z,1.60
2023-04-12T07:26:10.943Z,1.60
2023-04-12T07:28:39.119Z,1.50
2023-04-12T07:31:07.163Z,1.70
2023-04-12T07:33:36.573Z,1.73
2023-04-12T07:36:05.256Z,1.80
2023-04-12T07:38:32.896Z,1.63
2023-04-12T07:41:00.529Z,1.80
2023-04-12T07:43:28.155Z,2.10
2023-04-12T07:45:56.296Z,1.80
2023-04-12T07:48:24.418Z,2.38
2023-04-12T07:50:52.319Z,1.77
2023-04-12T07:53:24.134Z,1.50
2023-04-12T07:55:52.000Z,1.75
2023-04-12T07:58:20.033Z,1.73
2023-04-12T08:00:47.703Z,2.10
2023-04-12T08:03:16.869Z,1.60
2023-04-12T08:05:44.862Z,2.10
2023-04-12T08:08:12.632Z,1.30
2023-04-12T08:10:40.390Z,1.70
2023-04-12T08:13:08.634Z,1.80
2023-04-12T08:15:36.624Z,1.85
2023-04-12T08:18:04.490Z,2.13
2023-04-12T08:20:32.750Z,1.63
2023-04-12T08:23:00.298Z,1.65
2023-04-12T08:25:27.879Z,1.70
2023-04-12T08:27:55.766Z,1.83
2023-04-12T08:30:26.778Z,1.70
2023-04-12T08:32:54.754Z,1.63
2023-04-12T08:35:22.992Z,1.75
2023-04-12T08:37:50.528Z,1.90
2023-04-12T08:40:18.304Z,1.70
2023-04-12T08:42:46.496Z,1.58
2023-04-12T08:45:14.608Z,1.65
2023-04-12T08:47:43.314Z,1.65
2023-04-12T08:50:13.841Z,2.10
2023-04-12T08:52:41.852Z,1.80
2023-04-12T08:55:11.072Z,1.92
2023-04-12T08:57:41.064Z,2.00
2023-04-12T09:00:09.537Z,2.28
2023-04-12T09:02:38.428Z,1.83
2023-04-12T09:05:07.302Z,2.17
2023-04-12T09:07:35.163Z,2.08
2023-04-12T09:10:02.882Z,2.17
2023-04-12T09:12:30.416Z,1.75
2023-04-12T09:15:15.212Z,1.90
2023-04-12T09:17:43.120Z,2.17
2023-04-12T09:20:17.139Z,1.63
2023-04-12T09:22:46.560Z,2.10
2023-04-12T09:25:15.149Z,1.90
2023-04-12T09:27:49.340Z,1.55
2023-04-12T09:30:17.850Z,1.85
2023-04-12T09:32:45.587Z,1.30
2023-04-12T09:35:13.323Z,1.67
2023-04-12T09:37:40.884Z,1.63
2023-04-12T09:40:09.741Z,1.38
2023-04-12T09:42:37.857Z,1.65
2023-04-12T09:45:22.210Z,1.95
2023-04-12T09:47:50.262Z,1.52
2023-04-12T09:50:22.731Z,1.70
2023-04-12T09:52:51.094Z,2.33
2023-04-12T09:55:18.889Z,1.60
2023-04-12T09:57:46.639Z,1.65
2023-04-12T10:00:18.477Z,1.30
2023-04-12T10:05:16.929Z,1.75
2023-04-12T10:07:45.188Z,1.20
2023-04-12T10:10:14.019Z,1.40
2023-04-12T10:12:42.609Z,1.67
2023-04-12T10:15:15.345Z,1.30
2023-04-12T10:17:46.369Z,1.35
2023-04-12T10:20:15.327Z,1.20
2023-04-12T10:22:44.492Z,1.15
2023-04-12T10:25:13.041Z,1.40
2023-04-12T10:27:42.361Z,1.25
2023-04-12T10:30:28.810Z,1.67
2023-04-12T10:33:02.396Z,1.50
2023-04-12T10:35:30.807Z,1.30
2023-04-12T10:38:02.457Z,1.30
2023-04-12T10:40:31.466Z,1.15
2023-04-12T10:43:23.191Z,1.50
2023-04-12T10:45:51.335Z,1.13
2023-04-12T10:48:37.680Z,1.27
2023-04-12T10:51:15.729Z,0.98
2023-04-12T10:53:43.357Z,1.00
2023-04-12T10:56:32.093Z,1.08
2023-04-12T10:59:04.636Z,0.82
2023-04-12T11:01:39.670Z,0.90
2023-04-12T11:04:09.873Z,1.13
2023-04-12T11:06:48.679Z,1.10
2023-04-12T11:09:34.915Z,1.10
2023-04-12T11:12:06.589Z,1.17
2023-04-12T11:14:52.298Z,1.35
2023-04-12T11:17:26.331Z,1.02
2023-04-12T11:19:55.728Z,1.10
2023-04-12T11:22:24.791Z,0.90
2023-04-12T11:24:54.006Z,1.00
2023-04-12T11:27:22.313Z,1.13
2023-04-12T11:29:50.832Z,0.98
2023-04-12T11:32:18.640Z,0.90
2023-04-12T11:34:49.685Z,1.20
2023-04-12T11:37:22.214Z,0.97
2023-04-12T11:39:51.712Z,1.02
2023-04-12T11:42:20.797Z,1.00
2023-04-12T11:44:57.247Z,1.20
2023-04-12T11:47:26.974Z,1.20
2023-04-12T11:49:55.627Z,1.00
2023-04-12T11:52:28.972Z,1.13
2023-04-12T11:54:58.802Z,1.08
2023-04-12T11:57:28.476Z,1.13
2023-04-12T11:59:57.596Z,1.15
2023-04-12T12:02:29.096Z,1.30
2023-04-12T12:04:59.619Z,1.05
2023-04-12T12:07:27.876Z,0.95
2023-04-12T12:09:56.388Z,0.90
2023-04-12T12:12:25.081Z,1.00
2023-04-12T12:14:52.673Z,0.90
2023-04-12T12:17:20.442Z,0.90
2023-04-12T12:19:48.382Z,1.45
2023-04-12T12:22:15.960Z,1.20
2023-04-12T12:24:47.153Z,1.10
2023-04-12T12:27:18.302Z,0.90
2023-04-12T12:29:49.587Z,1.02
2023-04-12T12:32:18.342Z,1.20
2023-04-12T12:34:53.321Z,1.00
2023-04-12T12:37:22.020Z,1.23
2023-04-12T12:40:13.615Z,1.33
2023-04-12T12:42:48.673Z,1.27
2023-04-12T12:45:17.278Z,1.08
2023-04-12T12:47:49.221Z,1.02
2023-04-12T12:50:17.722Z,1.30
2023-04-12T12:52:46.307Z,0.98
2023-04-12T12:55:17.483Z,1.02
2023-04-12T12:57:55.180Z,1.08
2023-04-12T13:00:33.395Z,1.13
2023-04-12T13:03:01.458Z,1.00
2023-04-12T13:05:29.629Z,1.00
2023-04-12T13:07:57.188Z,1.00
2023-04-12T13:10:26.484Z,1.10
2023-04-12T13:12:54.137Z,1.17
2023-04-12T13:15:23.757Z,1.20
2023-04-12T13:17:55.210Z,0.90
2023-04-12T13:20:23.323Z,0.80
2023-04-12T13:22:53.975Z,0.90
2023-04-12T13:25:21.987Z,0.88
2023-04-12T13:27:49.807Z,0.70
2023-04-12T13:30:18.169Z,0.70
2023-04-12T13:32:45.949Z,0.80
2023-04-12T13:35:13.882Z,1.05
2023-04-12T13:37:42.006Z,0.90
2023-04-12T13:40:09.950Z,0.70
2023-04-12T13:42:37.544Z,0.73
2023-04-12T13:45:05.816Z,1.10
2023-04-12T13:47:33.911Z,0.98
2023-04-12T13:50:01.938Z,0.93
2023-04-12T13:52:29.550Z,0.85
2023-04-12T13:54:59.438Z,0.90
2023-04-12T13:57:27.020Z,0.88
2023-04-12T13:59:54.553Z,1.13
2023-04-12T14:02:22.138Z,0.80
2023-04-12T14:04:53.294Z,1.13
2023-04-12T14:07:21.514Z,1.00
2023-04-12T14:09:49.087Z,0.80
2023-04-12T14:12:16.623Z,0.90
2023-04-12T14:14:44.163Z,0.98
2023-04-12T14:17:11.841Z,0.95
2023-04-12T14:19:39.622Z,1.30
2023-04-12T14:22:07.221Z,1.00
2023-04-12T14:24:34.756Z,1.17
2023-04-12T14:27:02.418Z,1.17
2023-04-12T14:29:30.051Z,1.42
2023-04-12T14:31:57.573Z,0.90
2023-04-12T14:34:25.699Z,1.00
2023-04-12T14:36:53.280Z,1.00
2023-04-12T14:39:21.004Z,0.93
2023-04-12T14:41:48.541Z,0.93
2023-04-12T14:44:17.575Z,1.15
2023-04-12T14:46:47.275Z,1.10
2023-04-12T14:49:14.932Z,0.90
2023-04-12T14:51:42.506Z,1.10
2023-04-12T14:54:10.060Z,0.85
2023-04-12T14:56:46.593Z,0.90
2023-04-12T14:59:19.354Z,1.10
2023-04-12T15:01:47.071Z,0.90
2023-04-12T15:04:14.777Z,1.20
2023-04-12T15:06:42.578Z,1.00
2023-04-12T15:09:10.462Z,0.70
2023-04-12T15:11:38.346Z,0.90
2023-04-12T15:14:07.303Z,0.82
2023-04-12T15:16:35.408Z,1.05
2023-04-12T15:19:09.163Z,0.90
2023-04-12T15:21:41.404Z,0.98
2023-04-12T15:24:09.002Z,0.85
2023-04-12T15:26:36.516Z,1.10
2023-04-12T15:29:04.119Z,0.90
2023-04-12T15:31:34.822Z,1.00
2023-04-12T15:34:02.412Z,0.93
2023-04-12T15:36:33.850Z,0.90
2023-04-12T15:39:02.190Z,0.88
2023-04-12T15:41:33.872Z,0.82
2023-04-12T15:44:01.436Z,1.17
2023-04-12T15:46:29.088Z,0.88
2023-04-12T15:49:00.062Z,1.10
2023-04-12T15:51:28.578Z,0.98
2023-04-12T15:53:57.201Z,0.90
2023-04-12T15:56:25.237Z,1.02
2023-04-12T15:58:53.273Z,0.75
2023-04-12T16:01:20.913Z,0.82
2023-04-12T16:03:50.686Z,0.80
2023-04-12T16:06:19.651Z,0.75
2023-04-12T16:08:48.046Z,0.77
2023-04-12T16:11:17.055Z,1.10
2023-04-12T16:13:46.368Z,0.75
2023-04-12T16:16:15.314Z,0.70
2023-04-12T16:18:43.003Z,0.90
2023-04-12T16:21:12.748Z,0.90
2023-04-12T16:23:40.376Z,0.90
2023-04-12T16:26:07.902Z,1.23
2023-04-12T16:28:42.763Z,0.80
2023-04-12T16:31:10.733Z,0.80
2023-04-12T16:33:38.525Z,1.13
2023-04-12T16:36:06.250Z,1.38
2023-04-12T16:38:33.807Z,0.95
2023-04-12T16:41:01.410Z,1.00
2023-04-12T16:43:28.981Z,0.82
2023-04-12T16:45:56.720Z,0.93
2023-04-12T16:48:25.205Z,1.00
2023-04-12T16:50:52.749Z,0.95
2023-04-12T16:53:21.417Z,0.95
2023-04-12T16:55:48.995Z,1.00
2023-04-12T16:58:16.775Z,1.00
2023-04-12T17:00:44.616Z,1.17
2023-04-12T17:03:12.758Z,1.17
2023-04-12T17:05:40.644Z,0.77
2023-04-12T17:08:09.596Z,0.90
2023-04-12T17:10:37.264Z,0.80
2023-04-12T17:13:04.892Z,0.88
2023-04-12T17:15:32.828Z,0.90
2023-04-12T17:18:05.091Z,1.10
2023-04-12T17:20:33.142Z,0.95
2023-04-12T17:23:01.354Z,1.08
2023-04-12T17:25:31.005Z,0.90
2023-04-12T17:28:00.193Z,0.98
2023-04-12T17:30:28.055Z,0.90
2023-04-12T17:32:57.460Z,0.80
2023-04-12T17:35:25.050Z,0.93
2023-04-12T17:37:52.755Z,0.90
2023-04-12T17:40:20.318Z,0.80
2023-04-12T17:42:47.956Z,1.05
2023-04-12T17:45:16.031Z,0.80
2023-04-12T17:47:44.030Z,0.80
2023-04-12T17:50:12.073Z,0.90
2023-04-12T17:52:39.712Z,1.05
2023-04-12T17:55:09.096Z,1.08
2023-04-12T17:57:36.783Z,1.25
2023-04-12T18:00:14.243Z,1.13
2023-04-12T18:02:43.824Z,0.85
2023-04-12T18:05:12.238Z,0.90
2023-04-12T18:07:42.173Z,0.80
2023-04-12T18:10:10.328Z,0.68
2023-04-12T18:12:38.613Z,1.10
2023-04-12T18:15:08.133Z,0.90
2023-04-12T18:17:35.856Z,0.80
2023-04-12T18:20:08.642Z,0.80
2023-04-12T18:22:36.310Z,0.70
2023-04-12T18:25:04.140Z,1.10
2023-04-12T18:27:32.099Z,0.60
2023-04-12T18:30:01.279Z,0.68
2023-04-12T18:32:28.858Z,0.70
2023-04-12T18:34:56.546Z,0.80
2023-04-12T18:37:24.098Z,1.10
2023-04-12T18:39:53.292Z,0.93
2023-04-12T18:42:21.074Z,0.90
2023-04-12T18:44:48.859Z,0.80
2023-04-12T18:47:16.439Z,0.93
2023-04-12T18:49:45.674Z,0.98
2023-04-12T18:52:13.216Z,1.30
2023-04-12T18:54:40.789Z,1.10
2023-04-12T18:57:08.340Z,1.30
2023-04-12T18:59:36.048Z,1.58
2023-04-12T19:02:03.725Z,1.20
2023-04-12T19:04:31.666Z,1.17
2023-04-12T19:06:59.226Z,1.17
2023-04-12T19:09:27.283Z,1.13
2023-04-12T19:11:56.833Z,1.30
2023-04-12T19:14:25.293Z,1.42
2023-04-12T19:16:53.039Z,1.20
2023-04-12T19:19:20.765Z,1.48
2023-04-12T19:21:48.349Z,1.50
2023-04-12T19:24:16.157Z,1.60
2023-04-12T19:26:47.003Z,1.23
2023-04-12T19:29:19.564Z,1.60
2023-04-12T19:31:47.570Z,1.45
2023-04-12T19:34:17.664Z,1.52
2023-04-12T19:36:45.784Z,1.25
2023-04-12T19:39:13.424Z,1.13
2023-04-12T19:41:41.144Z,1.27
2023-04-12T19:44:08.757Z,1.20
2023-04-12T19:46:38.579Z,1.17
2023-04-12T19:49:06.178Z,1.27
2023-04-12T19:51:34.543Z,1.10
2023-04-12T19:54:02.652Z,1.55
2023-04-12T19:56:31.293Z,1.30
2023-04-12T19:58:59.951Z,1.10
2023-04-12T20:01:27.899Z,0.90
2023-04-12T20:03:55.576Z,1.20
2023-04-12T20:06:23.240Z,1.02
2023-04-12T20:08:51.145Z,1.10
2023-04-12T20:11:18.692Z,1.20
2023-04-12T20:13:46.446Z,1.00
2023-04-12T20:16:13.996Z,1.50
2023-04-12T20:18:41.986Z,1.35
2023-04-12T20:21:10.169Z,1.08
2023-04-12T20:23:37.794Z,1.45
2023-04-12T20:26:05.483Z,1.40
2023-04-12T20:28:33.431Z,1.42
2023-04-12T20:31:01.090Z,1.20
2023-04-12T20:33:29.253Z,1.40
2023-04-12T20:35:56.788Z,1.30
2023-04-12T20:38:24.430Z,1.40
2023-04-12T20:40:52.116Z,1.58
2023-04-12T20:43:20.205Z,1.10
2023-04-12T20:45:48.622Z,1.20
2023-04-12T20:48:16.657Z,1.15
2023-04-12T20:50:44.405Z,1.05
2023-04-12T20:53:15.714Z,1.00
2023-04-12T20:55:44.177Z,0.95
2023-04-12T20:58:16.237Z,1.08
2023-04-12T21:00:44.016Z,1.00
2023-04-12T21:03:12.323Z,0.88
2023-04-12T21:05:41.125Z,1.05
2023-04-12T21:08:08.683Z,0.80
2023-04-12T21:10:36.249Z,1.02
2023-04-12T21:13:03.782Z,0.77
2023-04-12T21:15:35.233Z,0.95
2023-04-12T21:18:04.173Z,1.10
2023-04-12T21:20:32.132Z,1.02
2023-04-12T21:22:59.700Z,0.80
2023-04-12T21:25:27.320Z,0.80
2023-04-12T21:27:54.879Z,0.88
2023-04-12T21:30:22.500Z,0.95
2023-04-12T21:32:51.655Z,1.00
2023-04-12T21:35:20.985Z,1.02
2023-04-12T21:37:49.240Z,1.33
2023-04-12T21:40:17.903Z,1.00
2023-04-12T21:42:45.752Z,1.30
2023-04-12T21:45:13.617Z,1.38
2023-04-12T21:47:41.701Z,1.20
2023-04-12T21:50:10.716Z,1.30
2023-04-12T21:52:38.733Z,1.67
2023-04-12T21:55:06.490Z,1.30
2023-04-12T21:57:34.952Z,1.38
2023-04-12T22:00:05.206Z,0.93
2023-04-12T22:02:39.528Z,1.10
2023-04-12T22:05:07.591Z,1.02
2023-04-12T22:07:35.209Z,1.10
2023-04-12T22:10:03.067Z,0.77
2023-04-12T22:12:33.729Z,0.93
2023-04-12T22:15:01.257Z,0.80
2023-04-12T22:17:29.207Z,1.20
2023-04-12T22:19:56.828Z,0.77
2023-04-12T22:22:25.475Z,0.70
2023-04-12T22:24:53.790Z,0.85
2023-04-12T22:27:21.401Z,0.93
2023-04-12T22:29:52.021Z,0.80
2023-04-12T22:32:19.595Z,0.95
2023-04-12T22:34:54.859Z,0.90
2023-04-12T22:37:30.010Z,0.80
2023-04-12T22:39:57.561Z,0.80
2023-04-12T22:42:26.424Z,0.85
2023-04-12T22:44:54.836Z,0.80
2023-04-12T22:47:22.397Z,0.70
2023-04-12T22:49:50.387Z,0.90
2023-04-12T22:52:18.141Z,0.95
2023-04-12T22:54:47.869Z,0.50
2023-04-12T22:57:15.752Z,0.60
2023-04-12T22:59:43.410Z,0.73
2023-04-12T23:02:11.105Z,0.60
2023-04-12T23:04:38.830Z,0.73
2023-04-12T23:07:06.391Z,0.80
2023-04-12T23:09:34.614Z,0.85
2023-04-12T23:12:04.137Z,0.95
2023-04-12T23:14:31.714Z,0.73
2023-04-12T23:16:59.265Z,0.80
2023-04-12T23:19:27.222Z,0.73
2023-04-12T23:21:54.796Z,0.70
2023-04-12T23:24:22.426Z,0.90
2023-04-12T23:26:49.935Z,0.68
2023-04-12T23:29:17.490Z,0.70
2023-04-12T23:31:45.690Z,0.95
2023-04-12T23:34:13.358Z,0.70
2023-04-12T23:36:41.013Z,0.80
2023-04-12T23:39:09.113Z,0.77
2023-04-12T23:41:36.692Z,0.57
2023-04-12T23:44:04.281Z,0.70
2023-04-12T23:46:32.076Z,0.70
2023-04-12T23:48:59.729Z,0.80
2023-04-12T23:51:29.231Z,0.63
2023-04-12T23:53:56.867Z,0.75
2023-04-12T23:56:24.561Z,0.60
2023-04-12T23:58:52.102Z,0.70
